Pagrindinis puslapis
METAR-TAF:

METAR-TAF

Oro uostai :

McGrath, Aliaska, Jungtinės Amerikos Valstijos

platuma: 62-58N, ilguma: 155-37W, Aukštis: 103 m

Dabartinis oras

Ataskaita buvo paskelbta 1 valandą ir 7 minutes, ne 20:53 UTC
Ramus vėjas
Temperatūra 6°C
Drėgmė 61%
Slėgis 1003 hPa
Matomumas: 16.1 km
Giedras dangus

METAR: PAMC 212053Z 00000KT 10SM CLR 06/M01 A2961 RMK AO2 SLP031 T00561011 $

Laikas: 14:00 (22:00 UTC)

Prognozė

Ataskaita buvo paskelbta 4 valandos ir 21 minutes, ne 17:39 UTC
Prognozė galioja nuo 21 metu 18 UTC su 22 metu 18 UTC
Vėjas 3 kt iš Vakarų/Pietvakarių
Matomumas: 10 km
Giedras dangus
Nuo 22 metu 0900 UTC
Vėjas 3 kt iš Pietų/Pietryčių
Matomumas: 10 km
Apsiniaukę ne aukštis 10000 ft

TAF: PAMC 211739Z 2118/2218 25003KT P6SM SKC FM220900 15003KT P6SM OVC100

Orai ataskaitas ir orų prognozės (METAR, TAF).

turimą stotys yra geltonos ir raudonos taškus žemėlapyje.

Perkelti pele per norėdami pamatyti stoties vardą.

Tada spustelėkite, norėdami matyti oro stebėjimo ir prognozės.

Norėdami pakeisti žemėlapį: spustelėkite ant žalios mygtukų su juodo kryžiaus žemyn,; žalią mygtuką su brūkšneliu, jei norite nutolinti; arba žalių rodyklių gretimoms žemėlapius.


METAR-TAF: